sensor_id;sensor_type;location;lat;lon;timestamp;temperature;humidity
9371;DHT22;4725;48.384;8.984;2024-03-02T00:01:05;4.10;99.90
9371;DHT22;4725;48.384;8.984;2024-03-02T00:06:00;4.20;99.90
9371;DHT22;4725;48.384;8.984;2024-03-02T00:08:29;4.10;99.90
9371;DHT22;4725;48.384;8.984;2024-03-02T00:10:58;4.00;99.90
9371;DHT22;4725;48.384;8.984;2024-03-02T00:15:53;3.80;99.90
9371;DHT22;4725;48.384;8.984;2024-03-02T00:18:23;3.80;99.90
9371;DHT22;4725;48.384;8.984;2024-03-02T00:23:20;3.50;99.90
9371;DHT22;4725;48.384;8.984;2024-03-02T00:25:49;3.50;99.90
9371;DHT22;4725;48.384;8.984;2024-03-02T00:28:20;3.50;99.90
9371;DHT22;4725;48.384;8.984;2024-03-02T00:31:02;3.50;99.90
9371;DHT22;4725;48.384;8.984;2024-03-02T00:33:32;3.40;99.90
9371;DHT22;4725;48.384;8.984;2024-03-02T00:35:59;3.40;99.90
9371;DHT22;4725;48.384;8.984;2024-03-02T00:38:31;3.30;99.90
9371;DHT22;4725;48.384;8.984;2024-03-02T00:41:04;3.40;99.90
9371;DHT22;4725;48.384;8.984;2024-03-02T00:43:47;3.30;99.90
9371;DHT22;4725;48.384;8.984;2024-03-02T00:46:18;3.30;99.90
9371;DHT22;4725;48.384;8.984;2024-03-02T00:48:51;3.30;99.90
9371;DHT22;4725;48.384;8.984;2024-03-02T00:51:20;3.30;99.90
9371;DHT22;4725;48.384;8.984;2024-03-02T00:53:47;3.20;99.90
9371;DHT22;4725;48.384;8.984;2024-03-02T00:56:16;3.20;99.90
9371;DHT22;4725;48.384;8.984;2024-03-02T01:01:10;3.10;99.90
9371;DHT22;4725;48.384;8.984;2024-03-02T01:06:05;3.00;99.90
9371;DHT22;4725;48.384;8.984;2024-03-02T01:08:33;3.00;99.90
9371;DHT22;4725;48.384;8.984;2024-03-02T01:11:00;2.90;99.90
9371;DHT22;4725;48.384;8.984;2024-03-02T01:13:29;2.90;99.90
9371;DHT22;4725;48.384;8.984;2024-03-02T01:23:18;2.60;99.90
9371;DHT22;4725;48.384;8.984;2024-03-02T01:30:42;2.60;99.90
9371;DHT22;4725;48.384;8.984;2024-03-02T01:38:04;2.40;99.90
9371;DHT22;4725;48.384;8.984;2024-03-02T01:40:33;2.30;99.90
9371;DHT22;4725;48.384;8.984;2024-03-02T01:50:27;2.20;99.90
9371;DHT22;4725;48.384;8.984;2024-03-02T01:52:55;2.20;99.90
9371;DHT22;4725;48.384;8.984;2024-03-02T01:57:49;2.60;99.90
9371;DHT22;4725;48.384;8.984;2024-03-02T02:00:18;2.60;99.90
9371;DHT22;4725;48.384;8.984;2024-03-02T02:02:45;2.60;99.90
9371;DHT22;4725;48.384;8.984;2024-03-02T02:05:14;2.40;99.90
9371;DHT22;4725;48.384;8.984;2024-03-02T02:10:09;2.20;99.90
9371;DHT22;4725;48.384;8.984;2024-03-02T02:12:36;2.10;99.90
9371;DHT22;4725;48.384;8.984;2024-03-02T02:19:58;2.00;99.90
9371;DHT22;4725;48.384;8.984;2024-03-02T02:22:26;2.20;99.90
9371;DHT22;4725;48.384;8.984;2024-03-02T02:27:20;2.20;99.90
9371;DHT22;4725;48.384;8.984;2024-03-02T02:39:37;1.70;99.90
9371;DHT22;4725;48.384;8.984;2024-03-02T02:46:58;1.40;99.90
9371;DHT22;4725;48.384;8.984;2024-03-02T02:56:48;1.30;99.90
9371;DHT22;4725;48.384;8.984;2024-03-02T02:59:15;1.30;99.90
9371;DHT22;4725;48.384;8.984;2024-03-02T03:13:59;1.30;99.90
9371;DHT22;4725;48.384;8.984;2024-03-02T03:26:16;1.10;99.90
9371;DHT22;4725;48.384;8.984;2024-03-02T03:31:11;1.10;99.90
9371;DHT22;4725;48.384;8.984;2024-03-02T03:33:38;1.00;99.90
9371;DHT22;4725;48.384;8.984;2024-03-02T03:36:05;0.90;99.90
9371;DHT22;4725;48.384;8.984;2024-03-02T03:40:59;0.90;99.90
9371;DHT22;4725;48.384;8.984;2024-03-02T03:45:53;0.80;99.90
9371;DHT22;4725;48.384;8.984;2024-03-02T03:48:21;0.80;99.90
9371;DHT22;4725;48.384;8.984;2024-03-02T03:53:15;0.80;99.90
9371;DHT22;4725;48.384;8.984;2024-03-02T03:55:42;0.80;99.90
9371;DHT22;4725;48.384;8.984;2024-03-02T04:00:36;0.80;99.90
9371;DHT22;4725;48.384;8.984;2024-03-02T04:03:03;0.80;99.90
9371;DHT22;4725;48.384;8.984;2024-03-02T04:05:31;0.80;99.90
9371;DHT22;4725;48.384;8.984;2024-03-02T04:07:58;0.70;99.90
9371;DHT22;4725;48.384;8.984;2024-03-02T04:12:52;0.70;99.90
9371;DHT22;4725;48.384;8.984;2024-03-02T04:15:20;0.60;99.90
9371;DHT22;4725;48.384;8.984;2024-03-02T04:20:15;0.60;99.90
9371;DHT22;4725;48.384;8.984;2024-03-02T04:22:44;0.50;99.90
9371;DHT22;4725;48.384;8.984;2024-03-02T04:25:10;0.40;99.90
9371;DHT22;4725;48.384;8.984;2024-03-02T04:30:05;0.40;99.90
9371;DHT22;4725;48.384;8.984;2024-03-02T04:32:32;0.30;99.90
9371;DHT22;4725;48.384;8.984;2024-03-02T04:39:55;0.30;99.90
9371;DHT22;4725;48.384;8.984;2024-03-02T04:52:11;0.80;99.90
9371;DHT22;4725;48.384;8.984;2024-03-02T04:57:20;0.90;99.90
9371;DHT22;4725;48.384;8.984;2024-03-02T04:59:47;0.80;99.90
9371;DHT22;4725;48.384;8.984;2024-03-02T05:09:35;2.10;99.90
9371;DHT22;4725;48.384;8.984;2024-03-02T05:14:44;2.50;99.90
9371;DHT22;4725;48.384;8.984;2024-03-02T05:24:33;3.10;99.90
9371;DHT22;4725;48.384;8.984;2024-03-02T05:27:00;3.40;99.90
9371;DHT22;4725;48.384;8.984;2024-03-02T05:31:55;3.60;99.90
9371;DHT22;4725;48.384;8.984;2024-03-02T05:39:16;3.80;99.90
9371;DHT22;4725;48.384;8.984;2024-03-02T05:41:43;3.80;99.90
9371;DHT22;4725;48.384;8.984;2024-03-02T05:44:10;3.70;99.90
9371;DHT22;4725;48.384;8.984;2024-03-02T05:51:35;3.80;99.90
9371;DHT22;4725;48.384;8.984;2024-03-02T06:01:34;3.30;99.90
9371;DHT22;4725;48.384;8.984;2024-03-02T06:06:29;2.90;99.90
9371;DHT22;4725;48.384;8.984;2024-03-02T06:08:57;2.80;99.90
9371;DHT22;4725;48.384;8.984;2024-03-02T06:13:51;3.00;99.90
9371;DHT22;4725;48.384;8.984;2024-03-02T06:23:41;3.00;99.90
9371;DHT22;4725;48.384;8.984;2024-03-02T06:31:02;2.60;99.90
9371;DHT22;4725;48.384;8.984;2024-03-02T06:40:52;2.60;99.90
9371;DHT22;4725;48.384;8.984;2024-03-02T06:43:20;2.60;99.90
9371;DHT22;4725;48.384;8.984;2024-03-02T06:48:16;2.40;99.90
9371;DHT22;4725;48.384;8.984;2024-03-02T06:50:45;2.40;99.90
9371;DHT22;4725;48.384;8.984;2024-03-02T07:00:35;2.40;99.90
9371;DHT22;4725;48.384;8.984;2024-03-02T07:10:23;2.70;99.90
9371;DHT22;4725;48.384;8.984;2024-03-02T07:15:18;2.80;99.90
9371;DHT22;4725;48.384;8.984;2024-03-02T07:18:03;2.80;99.90
9371;DHT22;4725;48.384;8.984;2024-03-02T07:22:57;2.80;99.90
9371;DHT22;4725;48.384;8.984;2024-03-02T07:25:24;2.80;99.90
9371;DHT22;4725;48.384;8.984;2024-03-02T07:30:20;2.70;99.90
9371;DHT22;4725;48.384;8.984;2024-03-02T07:32:50;2.70;99.90
9371;DHT22;4725;48.384;8.984;2024-03-02T07:35:16;2.70;99.90
9371;DHT22;4725;48.384;8.984;2024-03-02T07:37:44;2.70;99.90
9371;DHT22;4725;48.384;8.984;2024-03-02T07:40:12;2.60;99.90
9371;DHT22;4725;48.384;8.984;2024-03-02T07:50:03;3.00;99.90
9371;DHT22;4725;48.384;8.984;2024-03-02T07:52:31;3.20;99.90
9371;DHT22;4725;48.384;8.984;2024-03-02T07:54:58;3.30;99.90
9371;DHT22;4725;48.384;8.984;2024-03-02T07:57:25;3.40;99.90
9371;DHT22;4725;48.384;8.984;2024-03-02T08:02:19;3.50;99.90
9371;DHT22;4725;48.384;8.984;2024-03-02T08:04:48;3.70;99.90
9371;DHT22;4725;48.384;8.984;2024-03-02T08:12:10;4.00;99.90
9371;DHT22;4725;48.384;8.984;2024-03-02T08:14:37;4.00;99.90
9371;DHT22;4725;48.384;8.984;2024-03-02T08:17:04;4.10;99.90
9371;DHT22;4725;48.384;8.984;2024-03-02T08:19:35;4.10;99.90
9371;DHT22;4725;48.384;8.984;2024-03-02T08:22:04;4.10;99.90
9371;DHT22;4725;48.384;8.984;2024-03-02T08:26:59;4.60;99.90
9371;DHT22;4725;48.384;8.984;2024-03-02T08:31:54;5.00;99.90
9371;DHT22;4725;48.384;8.984;2024-03-02T08:34:21;5.00;99.90
9371;DHT22;4725;48.384;8.984;2024-03-02T08:36:48;5.30;99.90
9371;DHT22;4725;48.384;8.984;2024-03-02T08:39:16;5.50;99.90
9371;DHT22;4725;48.384;8.984;2024-03-02T08:41:45;7.80;99.90
9371;DHT22;4725;48.384;8.984;2024-03-02T08:44:13;6.10;99.90
9371;DHT22;4725;48.384;8.984;2024-03-02T08:46:40;6.30;99.90
9371;DHT22;4725;48.384;8.984;2024-03-02T08:49:07;6.30;99.90
9371;DHT22;4725;48.384;8.984;2024-03-02T08:51:34;6.50;99.90
9371;DHT22;4725;48.384;8.984;2024-03-02T08:54:01;6.50;99.90
9371;DHT22;4725;48.384;8.984;2024-03-02T08:56:31;6.80;99.90
9371;DHT22;4725;48.384;8.984;2024-03-02T08:58:58;7.10;99.90
9371;DHT22;4725;48.384;8.984;2024-03-02T09:01:25;7.50;99.90
9371;DHT22;4725;48.384;8.984;2024-03-02T09:03:52;7.70;99.90
9371;DHT22;4725;48.384;8.984;2024-03-02T09:06:19;7.80;99.90
9371;DHT22;4725;48.384;8.984;2024-03-02T09:08:46;8.00;99.90
9371;DHT22;4725;48.384;8.984;2024-03-02T09:11:15;8.20;99.90
9371;DHT22;4725;48.384;8.984;2024-03-02T09:13:43;8.40;99.90
9371;DHT22;4725;48.384;8.984;2024-03-02T09:16:10;8.70;99.90
9371;DHT22;4725;48.384;8.984;2024-03-02T09:18:37;8.80;99.90
9371;DHT22;4725;48.384;8.984;2024-03-02T09:21:04;9.00;99.90
9371;DHT22;4725;48.384;8.984;2024-03-02T09:23:33;9.20;99.90
9371;DHT22;4725;48.384;8.984;2024-03-02T09:26:00;9.50;99.90
9371;DHT22;4725;48.384;8.984;2024-03-02T09:28:26;9.60;99.90
9371;DHT22;4725;48.384;8.984;2024-03-02T09:30:55;9.50;99.90
9371;DHT22;4725;48.384;8.984;2024-03-02T09:33:21;9.60;99.90
9371;DHT22;4725;48.384;8.984;2024-03-02T09:35:49;9.70;99.90
9371;DHT22;4725;48.384;8.984;2024-03-02T09:38:15;10.10;99.90
9371;DHT22;4725;48.384;8.984;2024-03-02T09:40:42;10.30;99.90
9371;DHT22;4725;48.384;8.984;2024-03-02T09:43:10;10.50;99.90
9371;DHT22;4725;48.384;8.984;2024-03-02T09:45:37;10.60;99.90
9371;DHT22;4725;48.384;8.984;2024-03-02T09:48:06;10.70;99.90
9371;DHT22;4725;48.384;8.984;2024-03-02T09:50:33;10.90;99.90
9371;DHT22;4725;48.384;8.984;2024-03-02T09:53:00;11.10;99.90
9371;DHT22;4725;48.384;8.984;2024-03-02T09:55:28;11.30;99.90
9371;DHT22;4725;48.384;8.984;2024-03-02T09:57:55;11.50;99.90
9371;DHT22;4725;48.384;8.984;2024-03-02T10:00:22;11.40;99.90
9371;DHT22;4725;48.384;8.984;2024-03-02T10:02:51;11.40;99.90
9371;DHT22;4725;48.384;8.984;2024-03-02T10:05:27;11.80;99.90
9371;DHT22;4725;48.384;8.984;2024-03-02T10:10:35;12.00;99.90
9371;DHT22;4725;48.384;8.984;2024-03-02T10:13:06;12.60;99.90
9371;DHT22;4725;48.384;8.984;2024-03-02T10:15:33;12.50;99.90
9371;DHT22;4725;48.384;8.984;2024-03-02T10:18:00;12.50;99.90
9371;DHT22;4725;48.384;8.984;2024-03-02T10:20:28;12.70;99.90
9371;DHT22;4725;48.384;8.984;2024-03-02T10:22:55;12.50;99.90
9371;DHT22;4725;48.384;8.984;2024-03-02T10:25:29;12.90;99.90
9371;DHT22;4725;48.384;8.984;2024-03-02T10:27:58;13.30;99.90
9371;DHT22;4725;48.384;8.984;2024-03-02T10:30:25;13.40;99.90
9371;DHT22;4725;48.384;8.984;2024-03-02T10:32:53;13.40;99.90
9371;DHT22;4725;48.384;8.984;2024-03-02T10:35:20;13.40;99.90
9371;DHT22;4725;48.384;8.984;2024-03-02T10:37:49;13.70;99.90
9371;DHT22;4725;48.384;8.984;2024-03-02T10:40:16;13.80;99.90
9371;DHT22;4725;48.384;8.984;2024-03-02T10:42:42;14.10;99.90
9371;DHT22;4725;48.384;8.984;2024-03-02T10:45:12;14.70;99.90
9371;DHT22;4725;48.384;8.984;2024-03-02T10:47:39;14.50;99.90
9371;DHT22;4725;48.384;8.984;2024-03-02T10:50:07;14.60;99.90
9371;DHT22;4725;48.384;8.984;2024-03-02T10:52:34;15.10;99.90
9371;DHT22;4725;48.384;8.984;2024-03-02T10:55:03;15.10;99.90
9371;DHT22;4725;48.384;8.984;2024-03-02T10:57:36;16.10;99.70
9371;DHT22;4725;48.384;8.984;2024-03-02T11:00:09;17.60;99.90
9371;DHT22;4725;48.384;8.984;2024-03-02T11:02:42;15.50;99.90
9371;DHT22;4725;48.384;8.984;2024-03-02T11:05:15;15.90;99.90
9371;DHT22;4725;48.384;8.984;2024-03-02T11:07:45;15.90;97.10
9371;DHT22;4725;48.384;8.984;2024-03-02T11:10:15;15.60;98.90
9371;DHT22;4725;48.384;8.984;2024-03-02T11:12:50;15.70;99.50
9371;DHT22;4725;48.384;8.984;2024-03-02T11:15:21;15.60;98.40
9371;DHT22;4725;48.384;8.984;2024-03-02T11:17:50;15.60;99.20
9371;DHT22;4725;48.384;8.984;2024-03-02T11:20:18;15.80;98.20
9371;DHT22;4725;48.384;8.984;2024-03-02T11:22:46;16.60;97.30
9371;DHT22;4725;48.384;8.984;2024-03-02T11:25:24;17.30;97.20
9371;DHT22;4725;48.384;8.984;2024-03-02T11:28:02;17.00;96.20
9371;DHT22;4725;48.384;8.984;2024-03-02T11:30:51;16.80;96.80
9371;DHT22;4725;48.384;8.984;2024-03-02T11:33:25;16.90;96.60
9371;DHT22;4725;48.384;8.984;2024-03-02T11:35:56;17.80;95.20
9371;DHT22;4725;48.384;8.984;2024-03-02T11:38:31;18.00;94.60
9371;DHT22;4725;48.384;8.984;2024-03-02T11:41:01;17.70;95.20
9371;DHT22;4725;48.384;8.984;2024-03-02T11:43:28;16.40;95.10
9371;DHT22;4725;48.384;8.984;2024-03-02T11:46:00;16.40;94.80
9371;DHT22;4725;48.384;8.984;2024-03-02T11:48:29;17.80;93.90
9371;DHT22;4725;48.384;8.984;2024-03-02T11:50:58;18.10;93.80
9371;DHT22;4725;48.384;8.984;2024-03-02T11:53:28;17.70;93.40
9371;DHT22;4725;48.384;8.984;2024-03-02T11:55:58;18.20;93.90
9371;DHT22;4725;48.384;8.984;2024-03-02T11:58:27;19.00;92.50
9371;DHT22;4725;48.384;8.984;2024-03-02T12:00:55;20.60;94.10
9371;DHT22;4725;48.384;8.984;2024-03-02T12:03:24;19.70;93.40
9371;DHT22;4725;48.384;8.984;2024-03-02T12:05:54;20.00;92.10
9371;DHT22;4725;48.384;8.984;2024-03-02T12:08:22;20.30;90.50
9371;DHT22;4725;48.384;8.984;2024-03-02T12:11:00;19.70;90.80
9371;DHT22;4725;48.384;8.984;2024-03-02T12:13:35;19.50;90.60
9371;DHT22;4725;48.384;8.984;2024-03-02T12:16:03;20.00;92.00
9371;DHT22;4725;48.384;8.984;2024-03-02T12:18:31;20.40;90.70
9371;DHT22;4725;48.384;8.984;2024-03-02T12:20:58;20.60;90.60
9371;DHT22;4725;48.384;8.984;2024-03-02T12:23:29;20.20;91.50
9371;DHT22;4725;48.384;8.984;2024-03-02T12:25:57;21.70;91.10
9371;DHT22;4725;48.384;8.984;2024-03-02T12:28:26;22.30;90.70
9371;DHT22;4725;48.384;8.984;2024-03-02T12:30:54;22.40;91.10
9371;DHT22;4725;48.384;8.984;2024-03-02T12:33:21;22.10;90.90
9371;DHT22;4725;48.384;8.984;2024-03-02T12:35:49;22.20;90.60
9371;DHT22;4725;48.384;8.984;2024-03-02T12:38:16;22.40;88.50
9371;DHT22;4725;48.384;8.984;2024-03-02T12:45:37;22.60;88.60
9371;DHT22;4725;48.384;8.984;2024-03-02T12:48:06;21.60;90.00
9371;DHT22;4725;48.384;8.984;2024-03-02T12:50:33;21.90;90.50
9371;DHT22;4725;48.384;8.984;2024-03-02T12:53:00;21.60;90.90
9371;DHT22;4725;48.384;8.984;2024-03-02T12:55:27;21.50;90.90
9371;DHT22;4725;48.384;8.984;2024-03-02T13:00:22;21.10;89.00
9371;DHT22;4725;48.384;8.984;2024-03-02T13:02:50;22.40;90.50
9371;DHT22;4725;48.384;8.984;2024-03-02T13:05:18;20.90;90.40
9371;DHT22;4725;48.384;8.984;2024-03-02T13:07:47;20.40;90.50
9371;DHT22;4725;48.384;8.984;2024-03-02T13:10:18;20.10;91.10
9371;DHT22;4725;48.384;8.984;2024-03-02T13:15:33;19.70;90.50
9371;DHT22;4725;48.384;8.984;2024-03-02T13:18:00;19.60;91.60
9371;DHT22;4725;48.384;8.984;2024-03-02T13:20:31;19.90;91.50
9371;DHT22;4725;48.384;8.984;2024-03-02T13:22:58;20.30;92.00
9371;DHT22;4725;48.384;8.984;2024-03-02T13:25:25;20.20;90.00
9371;DHT22;4725;48.384;8.984;2024-03-02T13:27:52;20.80;88.80
9371;DHT22;4725;48.384;8.984;2024-03-02T13:30:19;21.00;88.60
9371;DHT22;4725;48.384;8.984;2024-03-02T13:32:45;20.70;90.60
9371;DHT22;4725;48.384;8.984;2024-03-02T13:35:12;19.50;90.90
9371;DHT22;4725;48.384;8.984;2024-03-02T13:37:41;19.00;90.80
9371;DHT22;4725;48.384;8.984;2024-03-02T13:40:08;18.60;90.90
9371;DHT22;4725;48.384;8.984;2024-03-02T13:42:39;20.90;91.80
9371;DHT22;4725;48.384;8.984;2024-03-02T13:45:06;19.10;90.80
9371;DHT22;4725;48.384;8.984;2024-03-02T13:47:33;20.40;90.10
9371;DHT22;4725;48.384;8.984;2024-03-02T13:50:00;20.70;90.30
9371;DHT22;4725;48.384;8.984;2024-03-02T13:52:28;21.20;88.90
9371;DHT22;4725;48.384;8.984;2024-03-02T13:54:57;21.50;90.10
9371;DHT22;4725;48.384;8.984;2024-03-02T13:57:23;22.00;88.50
9371;DHT22;4725;48.384;8.984;2024-03-02T13:59:50;21.90;87.00
9371;DHT22;4725;48.384;8.984;2024-03-02T14:04:46;22.30;87.10
9371;DHT22;4725;48.384;8.984;2024-03-02T14:09:42;22.00;85.50
9371;DHT22;4725;48.384;8.984;2024-03-02T14:12:10;22.50;86.70
9371;DHT22;4725;48.384;8.984;2024-03-02T14:14:38;22.00;83.80
9371;DHT22;4725;48.384;8.984;2024-03-02T14:17:06;22.20;85.70
9371;DHT22;4725;48.384;8.984;2024-03-02T14:19:40;21.40;87.60
9371;DHT22;4725;48.384;8.984;2024-03-02T14:24:34;21.50;88.70
9371;DHT22;4725;48.384;8.984;2024-03-02T14:27:01;22.30;85.10
9371;DHT22;4725;48.384;8.984;2024-03-02T14:29:31;22.40;85.90
9371;DHT22;4725;48.384;8.984;2024-03-02T14:32:02;22.20;85.90
9371;DHT22;4725;48.384;8.984;2024-03-02T14:39:23;21.20;83.10
9371;DHT22;4725;48.384;8.984;2024-03-02T14:41:50;21.40;84.40
9371;DHT22;4725;48.384;8.984;2024-03-02T14:44:16;21.70;80.10
9371;DHT22;4725;48.384;8.984;2024-03-02T14:46:46;21.70;81.40
9371;DHT22;4725;48.384;8.984;2024-03-02T14:49:14;22.40;82.10
9371;DHT22;4725;48.384;8.984;2024-03-02T14:51:41;22.60;82.60
9371;DHT22;4725;48.384;8.984;2024-03-02T14:54:08;21.70;78.40
9371;DHT22;4725;48.384;8.984;2024-03-02T14:56:35;22.20;78.40
9371;DHT22;4725;48.384;8.984;2024-03-02T15:01:29;20.30;81.80
9371;DHT22;4725;48.384;8.984;2024-03-02T15:06:24;18.30;86.00
9371;DHT22;4725;48.384;8.984;2024-03-02T15:08:51;17.80;85.80
9371;DHT22;4725;48.384;8.984;2024-03-02T15:11:20;17.60;90.00
9371;DHT22;4725;48.384;8.984;2024-03-02T15:13:47;17.50;89.60
9371;DHT22;4725;48.384;8.984;2024-03-02T15:16:14;17.80;84.70
9371;DHT22;4725;48.384;8.984;2024-03-02T15:18:41;17.40;85.40
9371;DHT22;4725;48.384;8.984;2024-03-02T15:21:09;17.00;89.00
9371;DHT22;4725;48.384;8.984;2024-03-02T15:23:36;16.90;90.00
9371;DHT22;4725;48.384;8.984;2024-03-02T15:26:03;16.60;90.00
9371;DHT22;4725;48.384;8.984;2024-03-02T15:28:30;16.20;89.70
9371;DHT22;4725;48.384;8.984;2024-03-02T15:30:57;16.00;90.80
9371;DHT22;4725;48.384;8.984;2024-03-02T15:35:58;15.40;91.40
9371;DHT22;4725;48.384;8.984;2024-03-02T15:40:53;15.00;92.30
9371;DHT22;4725;48.384;8.984;2024-03-02T15:43:20;14.80;92.30
9371;DHT22;4725;48.384;8.984;2024-03-02T15:45:49;14.60;92.70
9371;DHT22;4725;48.384;8.984;2024-03-02T15:48:16;14.60;93.00
9371;DHT22;4725;48.384;8.984;2024-03-02T15:50:43;14.40;92.00
9371;DHT22;4725;48.384;8.984;2024-03-02T15:53:10;14.10;90.90
9371;DHT22;4725;48.384;8.984;2024-03-02T15:55:38;13.90;92.20
9371;DHT22;4725;48.384;8.984;2024-03-02T15:58:05;13.60;91.70
9371;DHT22;4725;48.384;8.984;2024-03-02T16:00:32;13.40;91.60
9371;DHT22;4725;48.384;8.984;2024-03-02T16:02:59;13.40;92.10
9371;DHT22;4725;48.384;8.984;2024-03-02T16:05:25;13.10;92.40
9371;DHT22;4725;48.384;8.984;2024-03-02T16:07:52;13.10;93.90
9371;DHT22;4725;48.384;8.984;2024-03-02T16:10:19;13.10;94.30
9371;DHT22;4725;48.384;8.984;2024-03-02T16:12:47;12.90;93.50
9371;DHT22;4725;48.384;8.984;2024-03-02T16:15:14;12.80;92.90
9371;DHT22;4725;48.384;8.984;2024-03-02T16:17:41;12.60;93.50
9371;DHT22;4725;48.384;8.984;2024-03-02T16:20:08;12.60;94.20
9371;DHT22;4725;48.384;8.984;2024-03-02T16:22:35;12.40;93.90
9371;DHT22;4725;48.384;8.984;2024-03-02T16:25:03;12.30;94.60
9371;DHT22;4725;48.384;8.984;2024-03-02T16:27:30;12.20;94.80
9371;DHT22;4725;48.384;8.984;2024-03-02T16:29:58;12.10;95.90
9371;DHT22;4725;48.384;8.984;2024-03-02T16:32:25;12.10;95.90
9371;DHT22;4725;48.384;8.984;2024-03-02T16:34:52;11.90;95.70
9371;DHT22;4725;48.384;8.984;2024-03-02T16:37:19;11.80;96.50
9371;DHT22;4725;48.384;8.984;2024-03-02T16:39:46;11.70;96.80
9371;DHT22;4725;48.384;8.984;2024-03-02T16:42:14;11.50;96.40
9371;DHT22;4725;48.384;8.984;2024-03-02T16:47:10;11.40;98.20
9371;DHT22;4725;48.384;8.984;2024-03-02T16:49:36;11.50;97.60
9371;DHT22;4725;48.384;8.984;2024-03-02T16:52:04;11.30;98.40
9371;DHT22;4725;48.384;8.984;2024-03-02T16:54:31;11.30;99.50
9371;DHT22;4725;48.384;8.984;2024-03-02T16:56:57;11.20;99.90
9371;DHT22;4725;48.384;8.984;2024-03-02T16:59:24;11.20;99.90
9371;DHT22;4725;48.384;8.984;2024-03-02T17:01:51;11.10;99.90
9371;DHT22;4725;48.384;8.984;2024-03-02T17:04:19;11.00;99.90
9371;DHT22;4725;48.384;8.984;2024-03-02T17:06:46;11.00;99.90
9371;DHT22;4725;48.384;8.984;2024-03-02T17:09:13;11.00;99.90
9371;DHT22;4725;48.384;8.984;2024-03-02T17:11:40;11.00;99.90
9371;DHT22;4725;48.384;8.984;2024-03-02T17:14:07;11.00;99.90
9371;DHT22;4725;48.384;8.984;2024-03-02T17:19:01;10.90;99.90
9371;DHT22;4725;48.384;8.984;2024-03-02T17:23:58;12.90;99.90
9371;DHT22;4725;48.384;8.984;2024-03-02T17:26:25;10.70;99.90
9371;DHT22;4725;48.384;8.984;2024-03-02T17:28:52;10.60;99.90
9371;DHT22;4725;48.384;8.984;2024-03-02T17:31:20;10.60;99.90
9371;DHT22;4725;48.384;8.984;2024-03-02T17:33:47;10.60;99.90
9371;DHT22;4725;48.384;8.984;2024-03-02T17:36:14;10.60;99.90
9371;DHT22;4725;48.384;8.984;2024-03-02T17:38:42;10.60;99.90
9371;DHT22;4725;48.384;8.984;2024-03-02T17:41:09;10.50;99.90
9371;DHT22;4725;48.384;8.984;2024-03-02T17:43:36;10.50;99.90
9371;DHT22;4725;48.384;8.984;2024-03-02T17:46:06;10.50;99.90
9371;DHT22;4725;48.384;8.984;2024-03-02T17:48:32;10.50;99.90
9371;DHT22;4725;48.384;8.984;2024-03-02T17:50:59;10.40;99.90
9371;DHT22;4725;48.384;8.984;2024-03-02T17:53:26;10.40;99.90
9371;DHT22;4725;48.384;8.984;2024-03-02T17:55:55;10.40;99.90
9371;DHT22;4725;48.384;8.984;2024-03-02T17:58:22;10.40;99.90
9371;DHT22;4725;48.384;8.984;2024-03-02T18:00:48;10.40;99.90
9371;DHT22;4725;48.384;8.984;2024-03-02T18:03:15;10.40;99.90
9371;DHT22;4725;48.384;8.984;2024-03-02T18:05:42;10.40;99.90
9371;DHT22;4725;48.384;8.984;2024-03-02T18:08:09;10.40;99.90
9371;DHT22;4725;48.384;8.984;2024-03-02T18:10:36;10.30;99.90
9371;DHT22;4725;48.384;8.984;2024-03-02T18:13:04;10.30;99.90
9371;DHT22;4725;48.384;8.984;2024-03-02T18:15:31;10.30;99.90
9371;DHT22;4725;48.384;8.984;2024-03-02T18:17:58;10.20;99.90
9371;DHT22;4725;48.384;8.984;2024-03-02T18:20:25;10.20;99.90
9371;DHT22;4725;48.384;8.984;2024-03-02T18:22:52;10.10;99.90
9371;DHT22;4725;48.384;8.984;2024-03-02T18:25:22;10.10;99.90
9371;DHT22;4725;48.384;8.984;2024-03-02T18:27:48;10.10;99.90
9371;DHT22;4725;48.384;8.984;2024-03-02T18:30:17;10.10;99.90
9371;DHT22;4725;48.384;8.984;2024-03-02T18:40:08;9.80;99.90
9371;DHT22;4725;48.384;8.984;2024-03-02T18:42:36;9.90;99.90
9371;DHT22;4725;48.384;8.984;2024-03-02T18:47:32;9.70;99.90
9371;DHT22;4725;48.384;8.984;2024-03-02T18:50:03;9.70;99.90
9371;DHT22;4725;48.384;8.984;2024-03-02T18:52:34;9.70;99.90
9371;DHT22;4725;48.384;8.984;2024-03-02T18:55:02;9.60;99.90
9371;DHT22;4725;48.384;8.984;2024-03-02T18:57:29;9.50;99.90
9371;DHT22;4725;48.384;8.984;2024-03-02T19:04:52;9.20;99.90
9371;DHT22;4725;48.384;8.984;2024-03-02T19:14:40;8.80;99.90
9371;DHT22;4725;48.384;8.984;2024-03-02T19:19:34;8.50;99.90
9371;DHT22;4725;48.384;8.984;2024-03-02T19:22:03;8.50;99.90
9371;DHT22;4725;48.384;8.984;2024-03-02T19:29:24;8.70;99.90
9371;DHT22;4725;48.384;8.984;2024-03-02T19:31:54;8.50;99.90
9371;DHT22;4725;48.384;8.984;2024-03-02T19:34:22;8.40;99.90
9371;DHT22;4725;48.384;8.984;2024-03-02T19:39:18;8.20;99.90
9371;DHT22;4725;48.384;8.984;2024-03-02T19:49:10;8.40;99.90
9371;DHT22;4725;48.384;8.984;2024-03-02T19:54:05;8.60;99.90
9371;DHT22;4725;48.384;8.984;2024-03-02T20:01:29;8.40;99.90
9371;DHT22;4725;48.384;8.984;2024-03-02T20:03:56;8.30;99.90
9371;DHT22;4725;48.384;8.984;2024-03-02T20:13:46;8.10;99.90
9371;DHT22;4725;48.384;8.984;2024-03-02T20:21:10;8.00;99.90
9371;DHT22;4725;48.384;8.984;2024-03-02T20:23:37;7.90;99.90
9371;DHT22;4725;48.384;8.984;2024-03-02T20:31:00;8.20;99.90
9371;DHT22;4725;48.384;8.984;2024-03-02T20:33:27;8.30;99.90
9371;DHT22;4725;48.384;8.984;2024-03-02T20:43:16;8.30;99.90
9371;DHT22;4725;48.384;8.984;2024-03-02T20:45:44;8.60;99.90
9371;DHT22;4725;48.384;8.984;2024-03-02T20:48:13;8.70;99.90
9371;DHT22;4725;48.384;8.984;2024-03-02T20:53:08;8.60;99.90
9371;DHT22;4725;48.384;8.984;2024-03-02T20:55:35;8.60;99.90
9371;DHT22;4725;48.384;8.984;2024-03-02T21:05:26;8.40;99.90
9371;DHT22;4725;48.384;8.984;2024-03-02T21:10:20;8.10;99.90
9371;DHT22;4725;48.384;8.984;2024-03-02T21:17:42;8.10;99.90
9371;DHT22;4725;48.384;8.984;2024-03-02T21:22:47;8.00;99.90
9371;DHT22;4725;48.384;8.984;2024-03-02T21:40:06;7.70;99.90
9371;DHT22;4725;48.384;8.984;2024-03-02T21:52:25;7.40;99.90
9371;DHT22;4725;48.384;8.984;2024-03-02T21:57:20;7.40;99.90
9371;DHT22;4725;48.384;8.984;2024-03-02T22:09:36;7.50;99.90
9371;DHT22;4725;48.384;8.984;2024-03-02T22:12:04;7.40;99.90
9371;DHT22;4725;48.384;8.984;2024-03-02T22:19:26;7.20;99.90
9371;DHT22;4725;48.384;8.984;2024-03-02T22:26:48;7.10;99.90
9371;DHT22;4725;48.384;8.984;2024-03-02T22:29:15;7.10;99.90
9371;DHT22;4725;48.384;8.984;2024-03-02T22:31:44;7.10;99.90
9371;DHT22;4725;48.384;8.984;2024-03-02T22:34:11;7.10;99.90
9371;DHT22;4725;48.384;8.984;2024-03-02T22:39:05;7.00;99.90
9371;DHT22;4725;48.384;8.984;2024-03-02T22:48:54;7.10;99.90
9371;DHT22;4725;48.384;8.984;2024-03-02T22:51:21;7.10;99.90
9371;DHT22;4725;48.384;8.984;2024-03-02T22:56:16;7.10;99.90
9371;DHT22;4725;48.384;8.984;2024-03-02T23:01:10;7.10;99.90
9371;DHT22;4725;48.384;8.984;2024-03-02T23:03:38;7.10;99.90
9371;DHT22;4725;48.384;8.984;2024-03-02T23:06:07;7.10;99.90
9371;DHT22;4725;48.384;8.984;2024-03-02T23:08:35;7.20;99.90
9371;DHT22;4725;48.384;8.984;2024-03-02T23:11:02;7.20;99.90
9371;DHT22;4725;48.384;8.984;2024-03-02T23:13:29;7.30;99.90
9371;DHT22;4725;48.384;8.984;2024-03-02T23:15:56;7.30;99.90
9371;DHT22;4725;48.384;8.984;2024-03-02T23:23:19;7.90;99.90
9371;DHT22;4725;48.384;8.984;2024-03-02T23:30:40;8.20;99.90
9371;DHT22;4725;48.384;8.984;2024-03-02T23:40:31;8.00;99.90
9371;DHT22;4725;48.384;8.984;2024-03-02T23:43:21;8.00;99.90